sensor_id;sensor_type;location;lat;lon;timestamp;temperature;humidity
52435;DHT22;38354;52.892;6.148;2023-04-06T03:00:17;2.60;99.90
52435;DHT22;38354;52.892;6.148;2023-04-06T03:02:42;2.60;99.90
52435;DHT22;38354;52.892;6.148;2023-04-06T03:05:08;2.50;99.90
52435;DHT22;38354;52.892;6.148;2023-04-06T03:07:34;2.50;99.90
52435;DHT22;38354;52.892;6.148;2023-04-06T03:09:59;2.50;99.90
52435;DHT22;38354;52.892;6.148;2023-04-06T03:12:25;2.50;99.90
52435;DHT22;38354;52.892;6.148;2023-04-06T03:14:51;2.50;99.90
52435;DHT22;38354;52.892;6.148;2023-04-06T03:17:16;2.40;99.90
52435;DHT22;38354;52.892;6.148;2023-04-06T03:19:42;2.40;99.90
52435;DHT22;38354;52.892;6.148;2023-04-06T03:22:08;2.40;99.90
52435;DHT22;38354;52.892;6.148;2023-04-06T03:24:33;2.40;99.90
52435;DHT22;38354;52.892;6.148;2023-04-06T03:26:59;2.30;99.90
52435;DHT22;38354;52.892;6.148;2023-04-06T03:29:25;2.30;99.90
52435;DHT22;38354;52.892;6.148;2023-04-06T03:31:51;2.30;99.90
52435;DHT22;38354;52.892;6.148;2023-04-06T03:34:16;2.30;99.90
52435;DHT22;38354;52.892;6.148;2023-04-06T03:36:42;2.30;99.90
52435;DHT22;38354;52.892;6.148;2023-04-06T03:39:08;2.20;99.90
52435;DHT22;38354;52.892;6.148;2023-04-06T03:41:33;2.20;99.90
52435;DHT22;38354;52.892;6.148;2023-04-06T03:43:59;2.20;99.90
52435;DHT22;38354;52.892;6.148;2023-04-06T03:46:25;2.20;99.90
52435;DHT22;38354;52.892;6.148;2023-04-06T03:48:50;2.20;99.90
52435;DHT22;38354;52.892;6.148;2023-04-06T03:51:16;2.10;99.90
52435;DHT22;38354;52.892;6.148;2023-04-06T03:53:42;2.10;99.90
52435;DHT22;38354;52.892;6.148;2023-04-06T03:56:07;2.10;99.90
52435;DHT22;38354;52.892;6.148;2023-04-06T03:58:33;2.10;99.90
52435;DHT22;38354;52.892;6.148;2023-04-06T04:00:58;2.00;99.90
52435;DHT22;38354;52.892;6.148;2023-04-06T04:03:24;2.00;99.90
52435;DHT22;38354;52.892;6.148;2023-04-06T04:05:52;2.00;99.90
52435;DHT22;38354;52.892;6.148;2023-04-06T04:08:17;1.90;99.90
52435;DHT22;38354;52.892;6.148;2023-04-06T04:10:43;1.90;99.90
52435;DHT22;38354;52.892;6.148;2023-04-06T04:13:09;1.90;99.90
52435;DHT22;38354;52.892;6.148;2023-04-06T04:15:34;1.90;99.90
52435;DHT22;38354;52.892;6.148;2023-04-06T04:18:00;1.90;99.90
52435;DHT22;38354;52.892;6.148;2023-04-06T04:20:26;1.90;99.90
52435;DHT22;38354;52.892;6.148;2023-04-06T04:22:51;1.90;99.90
52435;DHT22;38354;52.892;6.148;2023-04-06T04:25:19;1.90;99.90
52435;DHT22;38354;52.892;6.148;2023-04-06T04:27:45;1.80;99.90
52435;DHT22;38354;52.892;6.148;2023-04-06T04:30:11;1.80;99.90
52435;DHT22;38354;52.892;6.148;2023-04-06T04:32:36;1.80;99.90
52435;DHT22;38354;52.892;6.148;2023-04-06T04:35:02;1.80;99.90
52435;DHT22;38354;52.892;6.148;2023-04-06T04:37:28;1.80;99.90
52435;DHT22;38354;52.892;6.148;2023-04-06T04:39:54;1.80;99.90
52435;DHT22;38354;52.892;6.148;2023-04-06T04:42:19;1.80;99.90
52435;DHT22;38354;52.892;6.148;2023-04-06T04:44:45;1.80;99.90
52435;DHT22;38354;52.892;6.148;2023-04-06T04:47:10;1.70;99.90
52435;DHT22;38354;52.892;6.148;2023-04-06T04:49:36;1.70;99.90
52435;DHT22;38354;52.892;6.148;2023-04-06T04:52:02;1.70;99.90
52435;DHT22;38354;52.892;6.148;2023-04-06T04:54:28;1.70;99.90
52435;DHT22;38354;52.892;6.148;2023-04-06T04:56:54;1.70;99.90
52435;DHT22;38354;52.892;6.148;2023-04-06T04:59:20;1.70;99.90
52435;DHT22;38354;52.892;6.148;2023-04-06T05:01:45;1.70;99.90
52435;DHT22;38354;52.892;6.148;2023-04-06T05:04:11;1.70;99.90
52435;DHT22;38354;52.892;6.148;2023-04-06T05:06:37;1.70;99.90
52435;DHT22;38354;52.892;6.148;2023-04-06T05:09:02;1.70;99.90
52435;DHT22;38354;52.892;6.148;2023-04-06T05:11:28;1.70;99.90
52435;DHT22;38354;52.892;6.148;2023-04-06T05:13:54;1.70;99.90
52435;DHT22;38354;52.892;6.148;2023-04-06T05:16:20;1.70;99.90
52435;DHT22;38354;52.892;6.148;2023-04-06T05:18:47;1.70;99.90
52435;DHT22;38354;52.892;6.148;2023-04-06T05:21:13;1.70;99.90
52435;DHT22;38354;52.892;6.148;2023-04-06T05:23:39;1.70;99.90
52435;DHT22;38354;52.892;6.148;2023-04-06T05:26:04;1.70;99.90
52435;DHT22;38354;52.892;6.148;2023-04-06T05:28:30;1.70;99.90
52435;DHT22;38354;52.892;6.148;2023-04-06T05:30:56;1.70;99.90
52435;DHT22;38354;52.892;6.148;2023-04-06T05:33:23;1.70;99.90
52435;DHT22;38354;52.892;6.148;2023-04-06T05:35:49;1.70;99.90
52435;DHT22;38354;52.892;6.148;2023-04-06T05:38:14;1.70;99.90
52435;DHT22;38354;52.892;6.148;2023-04-06T05:40:40;1.70;99.90
52435;DHT22;38354;52.892;6.148;2023-04-06T05:43:07;1.80;99.90
52435;DHT22;38354;52.892;6.148;2023-04-06T05:45:33;1.80;99.90
52435;DHT22;38354;52.892;6.148;2023-04-06T05:47:59;1.80;99.90
52435;DHT22;38354;52.892;6.148;2023-04-06T05:50:24;1.80;99.90
52435;DHT22;38354;52.892;6.148;2023-04-06T05:52:50;1.90;99.90
52435;DHT22;38354;52.892;6.148;2023-04-06T05:55:16;1.90;99.90
52435;DHT22;38354;52.892;6.148;2023-04-06T05:57:41;1.90;99.90
52435;DHT22;38354;52.892;6.148;2023-04-06T06:00:08;2.00;99.90
52435;DHT22;38354;52.892;6.148;2023-04-06T06:02:35;2.00;99.90
52435;DHT22;38354;52.892;6.148;2023-04-06T06:05:01;2.00;99.90
52435;DHT22;38354;52.892;6.148;2023-04-06T06:07:27;2.10;99.90
52435;DHT22;38354;52.892;6.148;2023-04-06T06:09:57;2.10;99.90
52435;DHT22;38354;52.892;6.148;2023-04-06T06:12:23;2.10;99.90
52435;DHT22;38354;52.892;6.148;2023-04-06T06:14:48;2.20;99.90
52435;DHT22;38354;52.892;6.148;2023-04-06T06:17:14;2.20;99.90
52435;DHT22;38354;52.892;6.148;2023-04-06T06:19:40;2.30;99.90
52435;DHT22;38354;52.892;6.148;2023-04-06T06:22:06;2.30;99.90
52435;DHT22;38354;52.892;6.148;2023-04-06T06:24:32;2.40;99.90
52435;DHT22;38354;52.892;6.148;2023-04-06T06:26:58;2.40;99.90
52435;DHT22;38354;52.892;6.148;2023-04-06T06:29:23;2.50;99.90
52435;DHT22;38354;52.892;6.148;2023-04-06T06:31:49;2.50;99.90
52435;DHT22;38354;52.892;6.148;2023-04-06T06:34:15;2.60;99.90
52435;DHT22;38354;52.892;6.148;2023-04-06T06:36:40;2.70;99.90
52435;DHT22;38354;52.892;6.148;2023-04-06T06:39:06;2.70;99.90
52435;DHT22;38354;52.892;6.148;2023-04-06T06:41:32;2.80;99.90
52435;DHT22;38354;52.892;6.148;2023-04-06T06:43:57;2.90;99.90
52435;DHT22;38354;52.892;6.148;2023-04-06T06:46:23;2.90;99.90
52435;DHT22;38354;52.892;6.148;2023-04-06T06:48:49;3.00;99.90
52435;DHT22;38354;52.892;6.148;2023-04-06T06:51:14;3.10;99.90
52435;DHT22;38354;52.892;6.148;2023-04-06T06:53:40;3.20;99.90
52435;DHT22;38354;52.892;6.148;2023-04-06T06:56:06;3.30;99.90
52435;DHT22;38354;52.892;6.148;2023-04-06T06:58:31;3.40;99.90
52435;DHT22;38354;52.892;6.148;2023-04-06T07:01:00;3.50;99.90
52435;DHT22;38354;52.892;6.148;2023-04-06T07:03:27;3.60;99.90
52435;DHT22;38354;52.892;6.148;2023-04-06T07:05:52;3.80;99.90
52435;DHT22;38354;52.892;6.148;2023-04-06T07:08:22;3.90;99.90
52435;DHT22;38354;52.892;6.148;2023-04-06T07:10:50;4.10;99.90
52435;DHT22;38354;52.892;6.148;2023-04-06T07:13:18;4.20;99.90
52435;DHT22;38354;52.892;6.148;2023-04-06T07:15:48;4.40;99.90
52435;DHT22;38354;52.892;6.148;2023-04-06T07:18:13;4.60;99.90
52435;DHT22;38354;52.892;6.148;2023-04-06T07:20:39;4.80;99.90
52435;DHT22;38354;52.892;6.148;2023-04-06T07:23:06;4.90;99.90
52435;DHT22;38354;52.892;6.148;2023-04-06T07:25:32;5.20;99.90
52435;DHT22;38354;52.892;6.148;2023-04-06T07:27:58;5.30;99.90
52435;DHT22;38354;52.892;6.148;2023-04-06T07:30:24;5.40;99.90
52435;DHT22;38354;52.892;6.148;2023-04-06T07:32:51;5.60;99.90
52435;DHT22;38354;52.892;6.148;2023-04-06T07:35:17;5.70;99.90
52435;DHT22;38354;52.892;6.148;2023-04-06T07:37:43;5.70;99.90
52435;DHT22;38354;52.892;6.148;2023-04-06T07:40:09;5.90;99.90
52435;DHT22;38354;52.892;6.148;2023-04-06T07:42:34;6.00;99.90
52435;DHT22;38354;52.892;6.148;2023-04-06T07:45:00;6.10;99.90
52435;DHT22;38354;52.892;6.148;2023-04-06T07:47:26;6.30;99.90
52435;DHT22;38354;52.892;6.148;2023-04-06T07:49:51;6.40;99.90
52435;DHT22;38354;52.892;6.148;2023-04-06T07:52:20;6.50;99.90
52435;DHT22;38354;52.892;6.148;2023-04-06T07:54:45;6.60;99.90
52435;DHT22;38354;52.892;6.148;2023-04-06T07:57:11;6.70;99.90
52435;DHT22;38354;52.892;6.148;2023-04-06T07:59:36;6.80;99.90
52435;DHT22;38354;52.892;6.148;2023-04-06T08:02:02;7.00;99.90
52435;DHT22;38354;52.892;6.148;2023-04-06T08:04:28;7.10;99.90
52435;DHT22;38354;52.892;6.148;2023-04-06T08:06:53;7.20;99.90
52435;DHT22;38354;52.892;6.148;2023-04-06T08:09:19;7.30;99.90
52435;DHT22;38354;52.892;6.148;2023-04-06T08:11:45;7.40;99.90
52435;DHT22;38354;52.892;6.148;2023-04-06T08:14:11;7.50;99.90
52435;DHT22;38354;52.892;6.148;2023-04-06T08:16:37;7.60;99.90
52435;DHT22;38354;52.892;6.148;2023-04-06T08:19:02;7.70;99.90
52435;DHT22;38354;52.892;6.148;2023-04-06T08:21:28;7.90;99.90
52435;DHT22;38354;52.892;6.148;2023-04-06T08:23:53;8.00;99.90
52435;DHT22;38354;52.892;6.148;2023-04-06T08:26:19;8.10;99.90
52435;DHT22;38354;52.892;6.148;2023-04-06T08:28:45;8.30;99.90
52435;DHT22;38354;52.892;6.148;2023-04-06T08:31:10;8.40;99.90
52435;DHT22;38354;52.892;6.148;2023-04-06T08:33:36;8.50;99.90
52435;DHT22;38354;52.892;6.148;2023-04-06T08:36:11;8.60;99.90
52435;DHT22;38354;52.892;6.148;2023-04-06T08:38:38;8.70;99.90
52435;DHT22;38354;52.892;6.148;2023-04-06T08:41:11;8.80;99.90
52435;DHT22;38354;52.892;6.148;2023-04-06T08:43:43;8.90;99.90
52435;DHT22;38354;52.892;6.148;2023-04-06T08:46:10;9.10;99.90
52435;DHT22;38354;52.892;6.148;2023-04-06T08:48:38;9.30;99.90
52435;DHT22;38354;52.892;6.148;2023-04-06T08:51:04;9.40;99.90
52435;DHT22;38354;52.892;6.148;2023-04-06T08:53:30;9.50;99.90
52435;DHT22;38354;52.892;6.148;2023-04-06T08:55:59;9.60;99.90
52435;DHT22;38354;52.892;6.148;2023-04-06T08:58:26;9.60;99.90
52435;DHT22;38354;52.892;6.148;2023-04-06T09:00:53;9.60;99.90
52435;DHT22;38354;52.892;6.148;2023-04-06T09:03:20;9.70;99.90
52435;DHT22;38354;52.892;6.148;2023-04-06T09:05:47;9.80;99.90
52435;DHT22;38354;52.892;6.148;2023-04-06T09:08:13;9.90;99.90
52435;DHT22;38354;52.892;6.148;2023-04-06T09:10:40;10.00;99.90
52435;DHT22;38354;52.892;6.148;2023-04-06T09:13:07;10.20;99.90
52435;DHT22;38354;52.892;6.148;2023-04-06T09:15:33;10.50;99.90
52435;DHT22;38354;52.892;6.148;2023-04-06T09:17:58;10.90;99.90
52435;DHT22;38354;52.892;6.148;2023-04-06T09:20:25;11.10;99.90
52435;DHT22;38354;52.892;6.148;2023-04-06T09:22:52;11.30;99.90
52435;DHT22;38354;52.892;6.148;2023-04-06T09:25:19;11.40;99.90
52435;DHT22;38354;52.892;6.148;2023-04-06T09:27:46;11.60;99.90
52435;DHT22;38354;52.892;6.148;2023-04-06T09:30:12;11.70;99.90
52435;DHT22;38354;52.892;6.148;2023-04-06T09:32:48;11.60;99.90
52435;DHT22;38354;52.892;6.148;2023-04-06T09:35:15;11.50;99.90
52435;DHT22;38354;52.892;6.148;2023-04-06T09:37:42;11.40;99.90
52435;DHT22;38354;52.892;6.148;2023-04-06T09:40:08;11.50;99.90
52435;DHT22;38354;52.892;6.148;2023-04-06T09:42:35;11.60;99.90
52435;DHT22;38354;52.892;6.148;2023-04-06T09:45:02;11.70;99.90
52435;DHT22;38354;52.892;6.148;2023-04-06T09:47:32;11.80;99.90
52435;DHT22;38354;52.892;6.148;2023-04-06T09:49:59;11.90;99.90
52435;DHT22;38354;52.892;6.148;2023-04-06T09:52:50;12.00;99.90
52435;DHT22;38354;52.892;6.148;2023-04-06T09:55:45;11.80;98.50
52435;DHT22;38354;52.892;6.148;2023-04-06T09:58:16;11.70;98.20
52435;DHT22;38354;52.892;6.148;2023-04-06T10:00:48;11.60;98.70
52435;DHT22;38354;52.892;6.148;2023-04-06T10:03:34;11.60;98.90
52435;DHT22;38354;52.892;6.148;2023-04-06T10:06:05;11.60;99.30
52435;DHT22;38354;52.892;6.148;2023-04-06T10:08:34;11.70;98.80
52435;DHT22;38354;52.892;6.148;2023-04-06T10:11:02;11.70;98.60
52435;DHT22;38354;52.892;6.148;2023-04-06T10:13:27;11.70;98.50
52435;DHT22;38354;52.892;6.148;2023-04-06T10:15:54;11.60;97.90
52435;DHT22;38354;52.892;6.148;2023-04-06T10:18:21;11.60;98.50
52435;DHT22;38354;52.892;6.148;2023-04-06T10:21:06;11.70;98.40
52435;DHT22;38354;52.892;6.148;2023-04-06T10:23:40;11.70;98.10
52435;DHT22;38354;52.892;6.148;2023-04-06T10:26:16;11.80;98.10
52435;DHT22;38354;52.892;6.148;2023-04-06T10:28:43;11.90;98.30
52435;DHT22;38354;52.892;6.148;2023-04-06T10:31:10;11.90;98.40
52435;DHT22;38354;52.892;6.148;2023-04-06T10:33:36;12.00;98.60
52435;DHT22;38354;52.892;6.148;2023-04-06T10:36:20;12.10;98.30
52435;DHT22;38354;52.892;6.148;2023-04-06T10:38:46;12.20;97.60
52435;DHT22;38354;52.892;6.148;2023-04-06T10:41:12;12.40;98.70
52435;DHT22;38354;52.892;6.148;2023-04-06T10:43:40;12.50;98.80
52435;DHT22;38354;52.892;6.148;2023-04-06T10:46:07;12.50;98.40
52435;DHT22;38354;52.892;6.148;2023-04-06T10:48:40;12.40;96.80
52435;DHT22;38354;52.892;6.148;2023-04-06T10:51:11;12.40;96.50
52435;DHT22;38354;52.892;6.148;2023-04-06T10:53:37;12.50;96.60
52435;DHT22;38354;52.892;6.148;2023-04-06T10:56:04;12.50;96.50
52435;DHT22;38354;52.892;6.148;2023-04-06T10:58:30;12.50;95.70
52435;DHT22;38354;52.892;6.148;2023-04-06T11:00:56;12.50;94.70
52435;DHT22;38354;52.892;6.148;2023-04-06T11:03:22;12.40;94.80
52435;DHT22;38354;52.892;6.148;2023-04-06T11:05:50;12.40;94.30
52435;DHT22;38354;52.892;6.148;2023-04-06T11:08:32;12.40;93.90
52435;DHT22;38354;52.892;6.148;2023-04-06T11:11:13;12.50;93.50
52435;DHT22;38354;52.892;6.148;2023-04-06T11:13:50;12.50;93.30
52435;DHT22;38354;52.892;6.148;2023-04-06T11:18:55;12.60;93.50
52435;DHT22;38354;52.892;6.148;2023-04-06T11:21:41;12.60;93.60
52435;DHT22;38354;52.892;6.148;2023-04-06T11:24:20;12.60;93.70
52435;DHT22;38354;52.892;6.148;2023-04-06T11:26:57;12.50;93.30
52435;DHT22;38354;52.892;6.148;2023-04-06T11:29:29;12.60;93.20
52435;DHT22;38354;52.892;6.148;2023-04-06T11:32:03;12.50;92.80
52435;DHT22;38354;52.892;6.148;2023-04-06T11:34:30;12.40;93.10
52435;DHT22;38354;52.892;6.148;2023-04-06T11:37:04;12.40;93.50
52435;DHT22;38354;52.892;6.148;2023-04-06T11:39:46;12.40;91.60
52435;DHT22;38354;52.892;6.148;2023-04-06T11:42:21;12.40;90.80
52435;DHT22;38354;52.892;6.148;2023-04-06T11:44:50;12.50;90.20
52435;DHT22;38354;52.892;6.148;2023-04-06T11:47:16;12.50;90.40
52435;DHT22;38354;52.892;6.148;2023-04-06T11:49:43;12.60;90.90
52435;DHT22;38354;52.892;6.148;2023-04-06T11:52:18;12.50;90.30
52435;DHT22;38354;52.892;6.148;2023-04-06T11:54:44;12.50;89.40
52435;DHT22;38354;52.892;6.148;2023-04-06T11:57:10;12.50;90.60
52435;DHT22;38354;52.892;6.148;2023-04-06T11:59:36;12.60;91.10
52435;DHT22;38354;52.892;6.148;2023-04-06T12:02:02;12.70;91.00
52435;DHT22;38354;52.892;6.148;2023-04-06T12:04:29;12.60;90.80
52435;DHT22;38354;52.892;6.148;2023-04-06T12:06:55;12.60;90.60
52435;DHT22;38354;52.892;6.148;2023-04-06T12:09:21;12.60;90.80
52435;DHT22;38354;52.892;6.148;2023-04-06T12:11:46;12.60;91.10
52435;DHT22;38354;52.892;6.148;2023-04-06T12:14:12;12.60;90.80
52435;DHT22;38354;52.892;6.148;2023-04-06T12:16:39;12.50;90.80
52435;DHT22;38354;52.892;6.148;2023-04-06T12:19:04;12.50;91.10
52435;DHT22;38354;52.892;6.148;2023-04-06T12:21:31;12.40;91.40
52435;DHT22;38354;52.892;6.148;2023-04-06T12:23:58;12.40;91.50
52435;DHT22;38354;52.892;6.148;2023-04-06T12:26:24;12.40;91.50
52435;DHT22;38354;52.892;6.148;2023-04-06T12:28:50;12.40;91.80
52435;DHT22;38354;52.892;6.148;2023-04-06T12:31:20;12.40;92.00
52435;DHT22;38354;52.892;6.148;2023-04-06T12:33:48;12.30;91.80
52435;DHT22;38354;52.892;6.148;2023-04-06T12:36:19;12.20;91.70
52435;DHT22;38354;52.892;6.148;2023-04-06T12:38:48;12.20;92.00
52435;DHT22;38354;52.892;6.148;2023-04-06T12:41:14;12.30;92.70
52435;DHT22;38354;52.892;6.148;2023-04-06T12:43:45;12.20;92.70
52435;DHT22;38354;52.892;6.148;2023-04-06T12:46:11;12.20;92.60
52435;DHT22;38354;52.892;6.148;2023-04-06T12:48:37;12.20;92.40
52435;DHT22;38354;52.892;6.148;2023-04-06T12:51:04;12.10;92.70
52435;DHT22;38354;52.892;6.148;2023-04-06T12:53:31;12.10;93.00
52435;DHT22;38354;52.892;6.148;2023-04-06T12:55:58;12.00;93.30
52435;DHT22;38354;52.892;6.148;2023-04-06T12:58:24;12.10;93.90
52435;DHT22;38354;52.892;6.148;2023-04-06T13:00:53;12.10;94.40
52435;DHT22;38354;52.892;6.148;2023-04-06T13:03:20;12.00;94.90
52435;DHT22;38354;52.892;6.148;2023-04-06T13:05:48;11.90;95.60
52435;DHT22;38354;52.892;6.148;2023-04-06T13:08:14;11.80;96.90
52435;DHT22;38354;52.892;6.148;2023-04-06T13:10:44;11.90;99.10
52435;DHT22;38354;52.892;6.148;2023-04-06T13:13:10;11.80;99.90
52435;DHT22;38354;52.892;6.148;2023-04-06T13:15:36;11.70;99.90
52435;DHT22;38354;52.892;6.148;2023-04-06T13:18:02;11.50;99.90
52435;DHT22;38354;52.892;6.148;2023-04-06T13:20:28;11.30;99.90
52435;DHT22;38354;52.892;6.148;2023-04-06T13:22:54;11.20;99.90
52435;DHT22;38354;52.892;6.148;2023-04-06T13:25:19;11.20;99.90
52435;DHT22;38354;52.892;6.148;2023-04-06T13:27:45;11.10;99.90
52435;DHT22;38354;52.892;6.148;2023-04-06T13:30:13;11.00;99.90
52435;DHT22;38354;52.892;6.148;2023-04-06T13:32:39;11.10;99.90
52435;DHT22;38354;52.892;6.148;2023-04-06T13:35:05;11.00;99.90
52435;DHT22;38354;52.892;6.148;2023-04-06T13:37:32;11.00;99.90
52435;DHT22;38354;52.892;6.148;2023-04-06T13:39:57;10.90;99.90
52435;DHT22;38354;52.892;6.148;2023-04-06T13:42:23;10.90;99.90
52435;DHT22;38354;52.892;6.148;2023-04-06T13:44:49;10.80;99.90
52435;DHT22;38354;52.892;6.148;2023-04-06T13:47:16;10.70;99.90
52435;DHT22;38354;52.892;6.148;2023-04-06T13:49:42;10.50;99.90
52435;DHT22;38354;52.892;6.148;2023-04-06T13:52:07;10.40;99.90
52435;DHT22;38354;52.892;6.148;2023-04-06T13:54:35;10.40;99.90
52435;DHT22;38354;52.892;6.148;2023-04-06T13:57:00;10.30;99.90
52435;DHT22;38354;52.892;6.148;2023-04-06T13:59:32;10.20;99.90
52435;DHT22;38354;52.892;6.148;2023-04-06T14:01:58;10.20;99.90
52435;DHT22;38354;52.892;6.148;2023-04-06T14:04:23;10.20;99.90
52435;DHT22;38354;52.892;6.148;2023-04-06T14:06:49;10.10;99.90
52435;DHT22;38354;52.892;6.148;2023-04-06T14:09:15;10.10;99.90
52435;DHT22;38354;52.892;6.148;2023-04-06T14:11:40;10.10;99.90
52435;DHT22;38354;52.892;6.148;2023-04-06T14:14:06;10.00;99.90
52435;DHT22;38354;52.892;6.148;2023-04-06T14:16:32;10.00;99.90
52435;DHT22;38354;52.892;6.148;2023-04-06T14:18:57;10.00;99.90
52435;DHT22;38354;52.892;6.148;2023-04-06T14:21:24;9.90;99.90
52435;DHT22;38354;52.892;6.148;2023-04-06T14:23:49;9.90;99.90
52435;DHT22;38354;52.892;6.148;2023-04-06T14:26:16;9.90;99.90
52435;DHT22;38354;52.892;6.148;2023-04-06T14:28:42;9.80;99.90
52435;DHT22;38354;52.892;6.148;2023-04-06T14:31:15;9.80;99.90
52435;DHT22;38354;52.892;6.148;2023-04-06T14:33:41;9.80;99.90
52435;DHT22;38354;52.892;6.148;2023-04-06T14:36:08;9.70;99.90
52435;DHT22;38354;52.892;6.148;2023-04-06T14:38:34;9.60;99.90
52435;DHT22;38354;52.892;6.148;2023-04-06T14:40:59;9.50;99.90
52435;DHT22;38354;52.892;6.148;2023-04-06T14:43:26;9.40;99.90
52435;DHT22;38354;52.892;6.148;2023-04-06T14:45:52;9.40;99.90
52435;DHT22;38354;52.892;6.148;2023-04-06T14:48:17;9.30;99.90
52435;DHT22;38354;52.892;6.148;2023-04-06T14:50:54;9.20;99.90
52435;DHT22;38354;52.892;6.148;2023-04-06T14:53:21;9.20;99.90
52435;DHT22;38354;52.892;6.148;2023-04-06T14:55:47;9.10;99.90
52435;DHT22;38354;52.892;6.148;2023-04-06T14:58:12;9.10;99.90
52435;DHT22;38354;52.892;6.148;2023-04-06T15:00:38;9.00;99.90
52435;DHT22;38354;52.892;6.148;2023-04-06T15:03:04;9.00;99.90
52435;DHT22;38354;52.892;6.148;2023-04-06T15:05:30;8.90;99.90
52435;DHT22;38354;52.892;6.148;2023-04-06T15:07:56;8.90;99.90
52435;DHT22;38354;52.892;6.148;2023-04-06T15:10:22;8.90;99.90
52435;DHT22;38354;52.892;6.148;2023-04-06T15:12:47;8.90;99.90
52435;DHT22;38354;52.892;6.148;2023-04-06T15:15:13;8.90;99.90
52435;DHT22;38354;52.892;6.148;2023-04-06T15:17:38;8.80;99.90
52435;DHT22;38354;52.892;6.148;2023-04-06T15:20:05;8.80;99.90
52435;DHT22;38354;52.892;6.148;2023-04-06T15:22:31;8.80;99.90
52435;DHT22;38354;52.892;6.148;2023-04-06T15:24:56;8.80;99.90
52435;DHT22;38354;52.892;6.148;2023-04-06T15:27:22;8.70;99.90
52435;DHT22;38354;52.892;6.148;2023-04-06T15:29:48;8.70;99.90
52435;DHT22;38354;52.892;6.148;2023-04-06T15:32:13;8.70;99.90
52435;DHT22;38354;52.892;6.148;2023-04-06T15:34:39;8.70;99.90
52435;DHT22;38354;52.892;6.148;2023-04-06T15:37:05;8.70;99.90
52435;DHT22;38354;52.892;6.148;2023-04-06T15:39:31;8.60;99.90
52435;DHT22;38354;52.892;6.148;2023-04-06T15:41:57;8.60;99.90
52435;DHT22;38354;52.892;6.148;2023-04-06T15:44:23;8.50;99.90
52435;DHT22;38354;52.892;6.148;2023-04-06T15:46:53;8.50;99.90
52435;DHT22;38354;52.892;6.148;2023-04-06T15:49:19;8.50;99.90
52435;DHT22;38354;52.892;6.148;2023-04-06T15:51:47;8.40;99.90
52435;DHT22;38354;52.892;6.148;2023-04-06T15:54:13;8.40;99.90
52435;DHT22;38354;52.892;6.148;2023-04-06T15:56:39;8.30;99.90
52435;DHT22;38354;52.892;6.148;2023-04-06T15:59:04;8.30;99.90
52435;DHT22;38354;52.892;6.148;2023-04-06T16:01:30;8.30;99.90
52435;DHT22;38354;52.892;6.148;2023-04-06T16:03:56;8.20;99.90
52435;DHT22;38354;52.892;6.148;2023-04-06T16:06:21;8.20;99.90
52435;DHT22;38354;52.892;6.148;2023-04-06T16:08:47;8.20;99.90
52435;DHT22;38354;52.892;6.148;2023-04-06T16:11:13;8.20;99.90
52435;DHT22;38354;52.892;6.148;2023-04-06T16:13:38;8.20;99.90
52435;DHT22;38354;52.892;6.148;2023-04-06T16:16:05;8.10;99.90
52435;DHT22;38354;52.892;6.148;2023-04-06T16:18:31;8.10;99.90
52435;DHT22;38354;52.892;6.148;2023-04-06T16:20:56;8.00;99.90
52435;DHT22;38354;52.892;6.148;2023-04-06T16:23:22;8.00;99.90
52435;DHT22;38354;52.892;6.148;2023-04-06T16:25:48;7.90;99.90
52435;DHT22;38354;52.892;6.148;2023-04-06T16:28:17;7.80;99.90
52435;DHT22;38354;52.892;6.148;2023-04-06T16:30:43;7.80;99.90
52435;DHT22;38354;52.892;6.148;2023-04-06T16:33:10;7.70;99.90
52435;DHT22;38354;52.892;6.148;2023-04-06T16:35:42;7.70;99.90
52435;DHT22;38354;52.892;6.148;2023-04-06T16:38:08;7.70;99.90
52435;DHT22;38354;52.892;6.148;2023-04-06T16:40:33;7.70;99.90
52435;DHT22;38354;52.892;6.148;2023-04-06T16:42:59;7.70;99.90
52435;DHT22;38354;52.892;6.148;2023-04-06T16:45:25;7.70;99.90
52435;DHT22;38354;52.892;6.148;2023-04-06T16:47:51;7.70;99.90
52435;DHT22;38354;52.892;6.148;2023-04-06T16:50:17;7.60;99.90
52435;DHT22;38354;52.892;6.148;2023-04-06T16:52:43;7.60;99.90
52435;DHT22;38354;52.892;6.148;2023-04-06T16:55:09;7.50;99.90
52435;DHT22;38354;52.892;6.148;2023-04-06T16:57:35;7.50;99.90
52435;DHT22;38354;52.892;6.148;2023-04-06T17:00:01;7.40;99.90
52435;DHT22;38354;52.892;6.148;2023-04-06T17:02:27;7.40;99.90
52435;DHT22;38354;52.892;6.148;2023-04-06T17:04:53;7.40;99.90
52435;DHT22;38354;52.892;6.148;2023-04-06T17:07:19;7.40;99.90
52435;DHT22;38354;52.892;6.148;2023-04-06T17:09:49;7.30;99.90
52435;DHT22;38354;52.892;6.148;2023-04-06T17:12:15;7.30;99.90
52435;DHT22;38354;52.892;6.148;2023-04-06T17:14:41;7.30;99.90
52435;DHT22;38354;52.892;6.148;2023-04-06T17:17:06;7.30;99.90
52435;DHT22;38354;52.892;6.148;2023-04-06T17:19:32;7.20;99.90
52435;DHT22;38354;52.892;6.148;2023-04-06T17:21:57;7.20;99.90
52435;DHT22;38354;52.892;6.148;2023-04-06T17:24:23;7.20;99.90
52435;DHT22;38354;52.892;6.148;2023-04-06T17:26:48;7.20;99.90
52435;DHT22;38354;52.892;6.148;2023-04-06T17:29:14;7.10;99.90
52435;DHT22;38354;52.892;6.148;2023-04-06T17:31:43;7.10;99.90
52435;DHT22;38354;52.892;6.148;2023-04-06T17:34:08;7.10;99.90
52435;DHT22;38354;52.892;6.148;2023-04-06T17:36:35;7.10;99.90
52435;DHT22;38354;52.892;6.148;2023-04-06T17:39:00;7.00;99.90
52435;DHT22;38354;52.892;6.148;2023-04-06T17:41:26;7.00;99.90
52435;DHT22;38354;52.892;6.148;2023-04-06T17:43:53;7.00;99.90
52435;DHT22;38354;52.892;6.148;2023-04-06T17:46:18;6.90;99.90
52435;DHT22;38354;52.892;6.148;2023-04-06T17:48:45;6.90;99.90
52435;DHT22;38354;52.892;6.148;2023-04-06T17:51:15;6.90;99.90
52435;DHT22;38354;52.892;6.148;2023-04-06T17:53:44;6.90;99.90
52435;DHT22;38354;52.892;6.148;2023-04-06T17:56:10;6.80;99.90
52435;DHT22;38354;52.892;6.148;2023-04-06T17:58:36;6.80;99.90
52435;DHT22;38354;52.892;6.148;2023-04-06T18:01:08;6.80;99.90
52435;DHT22;38354;52.892;6.148;2023-04-06T18:03:37;6.80;99.90
52435;DHT22;38354;52.892;6.148;2023-04-06T18:08:35;6.80;99.90
52435;DHT22;38354;52.892;6.148;2023-04-06T18:11:01;6.70;99.90
52435;DHT22;38354;52.892;6.148;2023-04-06T18:13:28;6.80;99.90
52435;DHT22;38354;52.892;6.148;2023-04-06T18:15:54;6.80;99.90
52435;DHT22;38354;52.892;6.148;2023-04-06T18:18:20;6.70;99.90
52435;DHT22;38354;52.892;6.148;2023-04-06T18:20:46;6.80;99.90
52435;DHT22;38354;52.892;6.148;2023-04-06T18:23:12;6.80;99.90
52435;DHT22;38354;52.892;6.148;2023-04-06T18:25:40;6.70;99.90
52435;DHT22;38354;52.892;6.148;2023-04-06T18:28:07;6.70;99.90
52435;DHT22;38354;52.892;6.148;2023-04-06T18:30:34;6.70;99.90
52435;DHT22;38354;52.892;6.148;2023-04-06T18:33:00;6.70;99.90
52435;DHT22;38354;52.892;6.148;2023-04-06T18:35:26;6.80;99.90
52435;DHT22;38354;52.892;6.148;2023-04-06T18:37:51;6.80;99.90
52435;DHT22;38354;52.892;6.148;2023-04-06T18:40:34;6.70;99.90
52435;DHT22;38354;52.892;6.148;2023-04-06T18:43:00;6.70;99.90